Time;durP1;ratioP1;P1;durP2;ratioP2;P2;SDS_P1;SDS_P2;PMS_P1;PMS_P2;Temp;Humidity;BMP_temperature;BMP_pressure;BME280_temperature;BME280_humidity;BME280_pressure;Samples;Min_cycle;Max_cycle;Signal;HPM_P1;HPM_P2
2022/04/02 00:01:41;;;;;;;9.23;7.27;;;3.00;99.90;;;;;;5061060;28;20209;-71
2022/04/02 00:04:08;;;;;;;7.83;7.00;;;3.00;99.90;;;;;;5060361;28;20649;-71
2022/04/02 00:06:34;;;;;;;8.93;6.87;;;3.00;99.90;;;;;;5060806;28;20211;-70
2022/04/02 00:09:00;;;;;;;8.60;7.20;;;3.00;99.90;;;;;;5062187;28;20185;-70
2022/04/02 00:11:26;;;;;;;9.10;7.23;;;3.00;99.90;;;;;;5061735;28;20225;-71
2022/04/02 00:13:52;;;;;;;7.90;7.10;;;3.00;99.90;;;;;;5062594;28;20757;-70
2022/04/02 00:16:18;;;;;;;8.17;7.17;;;3.00;99.90;;;;;;5062270;28;20178;-71
2022/04/02 00:18:44;;;;;;;10.10;6.80;;;3.00;99.90;;;;;;5062842;28;20788;-70
2022/04/02 00:21:10;;;;;;;9.73;7.10;;;3.00;99.90;;;;;;5061003;28;20207;-70
2022/04/02 00:23:40;;;;;;;8.60;6.83;;;2.90;99.90;;;;;;5061053;28;20189;-71
2022/04/02 00:26:08;;;;;;;8.57;7.07;;;2.90;99.90;;;;;;5060896;28;20173;-71
2022/04/02 00:28:36;;;;;;;8.00;6.90;;;2.90;99.90;;;;;;5064619;28;20542;-71
2022/04/02 00:31:04;;;;;;;8.27;7.03;;;3.00;99.90;;;;;;5065453;28;20296;-71
2022/04/02 00:33:30;;;;;;;8.07;7.10;;;3.00;99.90;;;;;;5066563;28;20224;-71
2022/04/02 00:35:56;;;;;;;9.57;7.33;;;3.00;99.90;;;;;;5064743;28;20181;-71
2022/04/02 00:38:22;;;;;;;7.07;6.00;;;3.00;99.90;;;;;;5063393;28;20187;-71
2022/04/02 00:40:47;;;;;;;8.13;6.53;;;3.00;99.90;;;;;;5061937;28;20837;-71
2022/04/02 00:43:30;;;;;;;10.73;6.27;;;2.90;99.90;;;;;;5051544;28;20184;-70
2022/04/02 00:45:58;;;;;;;9.03;6.37;;;2.90;99.90;;;;;;5062270;28;20217;-70
2022/04/02 00:48:25;;;;;;;8.60;6.20;;;2.90;99.90;;;;;;5066391;28;20264;-70
2022/04/02 00:50:53;;;;;;;7.63;6.37;;;3.00;99.90;;;;;;5066354;28;20264;-70
2022/04/02 00:53:21;;;;;;;6.63;5.60;;;3.00;99.90;;;;;;5063369;28;20244;-70
2022/04/02 00:55:48;;;;;;;7.17;6.23;;;3.00;99.90;;;;;;5064090;28;20185;-73
2022/04/02 00:58:15;;;;;;;7.17;6.00;;;3.10;99.90;;;;;;5063624;28;20190;-73
2022/04/02 01:00:41;;;;;;;6.37;5.50;;;3.10;99.90;;;;;;5064119;28;20710;-70
2022/04/02 01:03:08;;;;;;;6.63;5.40;;;3.10;99.90;;;;;;5067700;28;20197;-71
2022/04/02 01:05:40;;;;;;;6.60;5.83;;;3.10;99.90;;;;;;5064224;28;20201;-70
2022/04/02 01:08:07;;;;;;;6.50;5.33;;;3.10;99.90;;;;;;5058065;28;21001;-71
2022/04/02 01:10:35;;;;;;;7.93;5.63;;;3.10;99.90;;;;;;5068343;28;20185;-71
2022/04/02 01:13:05;;;;;;;8.13;5.40;;;3.10;99.90;;;;;;5064053;28;20221;-71
2022/04/02 01:15:32;;;;;;;6.43;5.43;;;3.10;99.90;;;;;;5064534;28;20655;-71
2022/04/02 01:17:58;;;;;;;6.77;5.73;;;3.10;99.90;;;;;;5067465;28;20185;-71
2022/04/02 01:20:32;;;;;;;5.90;5.30;;;3.10;99.90;;;;;;5069575;28;20275;-71
2022/04/02 01:23:00;;;;;;;6.37;5.40;;;3.10;99.90;;;;;;5068725;28;20599;-71
2022/04/02 01:25:31;;;;;;;5.53;4.93;;;3.10;99.90;;;;;;5068654;28;20253;-71
2022/04/02 01:28:00;;;;;;;5.60;5.00;;;3.10;99.90;;;;;;5079996;28;20602;-71
2022/04/02 01:30:30;;;;;;;6.77;5.33;;;3.00;99.90;;;;;;5067276;28;20572;-71
2022/04/02 01:32:55;;;;;;;5.50;5.00;;;3.10;99.90;;;;;;5061323;28;20805;-72
2022/04/02 01:35:21;;;;;;;5.83;5.23;;;3.00;99.90;;;;;;5064201;28;20181;-71
2022/04/02 01:37:59;;;;;;;5.70;5.10;;;3.10;99.90;;;;;;5067768;28;20660;-71
2022/04/02 01:40:25;;;;;;;5.50;5.00;;;3.10;99.90;;;;;;5061812;28;20255;-71
2022/04/02 01:42:51;;;;;;;6.33;5.67;;;3.10;99.90;;;;;;5065755;28;20265;-72
2022/04/02 01:45:17;;;;;;;5.90;5.30;;;3.00;99.90;;;;;;5062535;28;20201;-71
2022/04/02 01:47:56;;;;;;;5.40;4.90;;;3.00;99.90;;;;;;5064087;28;20632;-72
2022/04/02 01:50:35;;;;;;;6.10;4.87;;;3.00;99.90;;;;;;5068809;28;20206;-71
2022/04/02 01:53:01;;;;;;;5.40;4.90;;;3.00;99.90;;;;;;5063218;28;20537;-71
2022/04/02 01:55:27;;;;;;;5.20;4.67;;;3.00;99.90;;;;;;5063560;28;20188;-71
2022/04/02 01:57:59;;;;;;;5.23;4.73;;;2.90;99.90;;;;;;5064367;28;20189;-71
2022/04/02 02:00:32;;;;;;;5.60;5.10;;;2.90;99.90;;;;;;5061431;28;20217;-71
2022/04/02 02:02:58;;;;;;;5.67;4.67;;;3.00;99.90;;;;;;5077320;28;20213;-71
2022/04/02 02:05:23;;;;;;;5.43;4.50;;;2.90;99.90;;;;;;5063327;28;20735;-71
2022/04/02 02:07:50;;;;;;;5.57;5.07;;;2.90;99.90;;;;;;5065368;28;20186;-71
2022/04/02 02:10:21;;;;;;;5.87;4.87;;;3.00;99.90;;;;;;5060630;28;20272;-71
2022/04/02 02:13:07;;;;;;;7.70;5.43;;;2.90;99.90;;;;;;5064031;28;20211;-72
2022/04/02 02:15:42;;;;;;;5.30;4.80;;;3.00;99.90;;;;;;5059603;28;20258;-71
2022/04/02 02:18:09;;;;;;;5.60;4.80;;;3.00;99.90;;;;;;5066660;28;20173;-71
2022/04/02 02:20:35;;;;;;;5.87;4.87;;;3.00;99.90;;;;;;5066307;28;20217;-71
2022/04/02 02:23:00;;;;;;;6.33;4.83;;;3.00;99.90;;;;;;5068178;28;20227;-71
2022/04/02 02:25:26;;;;;;;5.07;4.57;;;2.90;99.90;;;;;;5063060;28;20182;-70
2022/04/02 02:27:52;;;;;;;5.47;4.73;;;2.90;99.90;;;;;;5048882;28;21805;-71
2022/04/02 02:30:22;;;;;;;5.20;4.40;;;2.90;99.90;;;;;;5067164;28;20650;-71
2022/04/02 02:32:48;;;;;;;7.90;4.70;;;2.90;99.90;;;;;;5067494;28;20181;-72
2022/04/02 02:38:09;;;;;;;5.80;5.07;;;2.80;99.90;;;;;;5060573;28;20200;-71
2022/04/02 02:40:43;;;;;;;5.43;4.60;;;2.90;99.90;;;;;;5043882;28;20217;-71
2022/04/02 02:43:14;;;;;;;5.10;4.60;;;2.90;99.90;;;;;;5067520;28;20217;-71
2022/04/02 02:45:42;;;;;;;6.00;4.20;;;2.90;99.90;;;;;;5060360;28;20185;-70
2022/04/02 02:48:09;;;;;;;5.73;4.40;;;2.90;99.90;;;;;;5079323;28;20593;-71
2022/04/02 02:50:44;;;;;;;6.23;4.50;;;2.90;99.90;;;;;;5060723;28;20663;-71
2022/04/02 02:53:12;;;;;;;4.90;4.40;;;2.90;99.90;;;;;;5060771;28;20430;-71
2022/04/02 02:55:38;;;;;;;4.70;4.20;;;2.90;99.90;;;;;;5062256;28;20185;-71
2022/04/02 02:58:08;;;;;;;5.60;4.23;;;2.90;99.90;;;;;;5062370;28;20844;-71
2022/04/02 03:00:35;;;;;;;4.83;4.40;;;2.90;99.90;;;;;;5041776;28;20225;-70
2022/04/02 03:03:02;;;;;;;4.47;4.07;;;2.90;99.90;;;;;;5063767;28;20250;-71
2022/04/02 03:05:31;;;;;;;4.60;4.20;;;2.90;99.90;;;;;;5058723;28;20185;-72
2022/04/02 03:08:02;;;;;;;5.30;3.93;;;2.90;99.90;;;;;;5062718;28;20617;-71
2022/04/02 03:10:36;;;;;;;5.87;4.30;;;2.80;99.90;;;;;;5059183;28;20197;-71
2022/04/02 03:13:02;;;;;;;4.30;3.90;;;2.80;99.90;;;;;;5065649;28;20190;-71
2022/04/02 03:15:32;;;;;;;6.67;4.17;;;2.80;99.90;;;;;;5062590;28;20185;-71
2022/04/02 03:18:05;;;;;;;4.40;4.00;;;2.70;99.90;;;;;;5079455;28;20178;-71
2022/04/02 03:20:31;;;;;;;4.77;3.77;;;2.70;99.90;;;;;;5066904;28;21184;-70
2022/04/02 03:22:57;;;;;;;6.13;3.97;;;2.70;99.90;;;;;;5045574;28;20177;-71
2022/04/02 03:25:24;;;;;;;4.90;3.67;;;2.80;99.90;;;;;;5067195;28;20536;-71
2022/04/02 03:27:51;;;;;;;4.03;3.63;;;2.70;99.90;;;;;;5061270;28;20189;-71
2022/04/02 03:30:20;;;;;;;4.63;3.90;;;2.70;99.90;;;;;;5068271;28;20232;-71
2022/04/02 03:32:49;;;;;;;5.90;3.70;;;2.70;99.90;;;;;;5061588;28;20191;-71
2022/04/02 03:35:16;;;;;;;4.20;3.80;;;2.70;99.90;;;;;;5060989;28;20213;-71
2022/04/02 03:37:47;;;;;;;3.77;3.47;;;2.70;99.90;;;;;;5065902;28;20185;-71
2022/04/02 03:40:17;;;;;;;4.63;3.93;;;2.70;99.90;;;;;;5061712;28;20184;-71
2022/04/02 03:42:45;;;;;;;5.77;4.10;;;2.70;99.90;;;;;;5064211;28;20641;-71
2022/04/02 03:45:15;;;;;;;4.67;3.83;;;2.70;99.90;;;;;;5059581;28;20288;-71
2022/04/02 03:47:46;;;;;;;4.47;3.80;;;2.70;99.90;;;;;;5063086;28;20282;-71
2022/04/02 03:50:13;;;;;;;6.27;3.90;;;2.70;99.90;;;;;;5061752;28;20184;-71
2022/04/02 03:52:45;;;;;;;4.73;4.23;;;2.70;99.90;;;;;;5058653;28;20255;-71
2022/04/02 03:55:15;;;;;;;4.10;3.70;;;2.70;99.90;;;;;;5068003;28;20696;-70
2022/04/02 03:57:47;;;;;;;3.97;3.60;;;2.80;99.90;;;;;;5065021;28;20273;-70
2022/04/02 04:00:16;;;;;;;4.20;3.40;;;2.70;99.90;;;;;;5067567;28;20196;-71
2022/04/02 04:02:49;;;;;;;3.90;3.50;;;2.70;99.90;;;;;;5060979;28;20201;-70
2022/04/02 04:05:23;;;;;;;4.00;3.30;;;2.70;99.90;;;;;;5045597;28;20264;-71
2022/04/02 04:07:49;;;;;;;3.50;3.20;;;2.70;99.90;;;;;;5065484;28;20174;-71
2022/04/02 04:10:16;;;;;;;3.87;3.47;;;2.70;99.90;;;;;;5060530;28;20189;-71
2022/04/02 04:12:42;;;;;;;4.30;3.57;;;2.70;99.90;;;;;;5059779;28;20641;-70
2022/04/02 04:15:09;;;;;;;4.10;3.70;;;2.70;99.90;;;;;;5060241;28;20201;-71
2022/04/02 04:17:35;;;;;;;3.67;3.37;;;2.70;99.90;;;;;;5066460;28;20608;-71
2022/04/02 04:20:02;;;;;;;3.87;3.47;;;2.70;99.90;;;;;;5059136;28;20297;-71
2022/04/02 04:22:29;;;;;;;5.93;3.90;;;2.60;99.90;;;;;;5061807;28;20273;-71
2022/04/02 04:24:55;;;;;;;4.63;3.40;;;2.70;99.90;;;;;;5059979;28;20209;-70
2022/04/02 04:27:22;;;;;;;4.97;4.03;;;2.60;99.90;;;;;;5059318;28;20246;-71
2022/04/02 04:29:48;;;;;;;5.77;4.10;;;2.70;99.90;;;;;;5058991;28;20202;-71
2022/04/02 04:32:15;;;;;;;4.73;3.60;;;2.70;99.90;;;;;;5062679;28;20246;-71
2022/04/02 04:34:41;;;;;;;5.43;3.90;;;2.70;99.90;;;;;;5065145;28;22241;-72
2022/04/02 04:37:07;;;;;;;5.30;3.87;;;2.70;99.90;;;;;;5060520;28;20213;-70
2022/04/02 04:39:35;;;;;;;4.50;3.90;;;2.70;99.90;;;;;;5055611;28;20232;-71
2022/04/02 04:42:02;;;;;;;4.90;3.97;;;2.70;99.90;;;;;;5058293;28;20227;-71
2022/04/02 04:44:32;;;;;;;4.57;3.90;;;2.70;99.90;;;;;;5058667;28;20570;-70
2022/04/02 04:46:59;;;;;;;6.03;3.83;;;2.70;99.90;;;;;;5056777;28;20223;-71
2022/04/02 04:49:26;;;;;;;4.30;3.90;;;2.70;99.90;;;;;;5042704;28;20251;-71
2022/04/02 04:51:58;;;;;;;4.97;3.50;;;2.70;99.90;;;;;;5057144;28;20231;-71
2022/04/02 04:54:24;;;;;;;4.23;3.80;;;2.60;99.90;;;;;;5058982;28;20202;-71
2022/04/02 04:56:51;;;;;;;5.27;3.90;;;2.60;99.90;;;;;;5064399;28;20789;-71
2022/04/02 04:59:20;;;;;;;4.30;3.77;;;2.60;99.90;;;;;;5065910;28;20181;-70
2022/04/02 05:01:48;;;;;;;4.07;3.67;;;2.60;99.90;;;;;;5062361;28;20688;-72
2022/04/02 05:04:14;;;;;;;4.97;3.73;;;2.60;99.90;;;;;;5065470;28;20198;-70
2022/04/02 05:06:45;;;;;;;5.13;3.90;;;2.60;99.90;;;;;;5063169;28;20186;-70
2022/04/02 05:09:14;;;;;;;6.43;3.93;;;2.60;99.90;;;;;;5059733;28;20182;-71
2022/04/02 05:11:43;;;;;;;6.23;3.50;;;2.60;99.90;;;;;;5065772;28;20185;-71
2022/04/02 05:14:13;;;;;;;7.10;5.00;;;2.60;99.90;;;;;;5080446;28;20210;-71
2022/04/02 05:16:40;;;;;;;5.77;4.67;;;2.60;99.90;;;;;;5059882;28;20189;-71
2022/04/02 05:19:09;;;;;;;5.30;3.70;;;2.60;99.90;;;;;;5063595;28;20190;-71
2022/04/02 05:21:37;;;;;;;12.33;6.23;;;2.70;99.90;;;;;;5063680;28;20217;-71
2022/04/02 05:24:04;;;;;;;6.57;5.00;;;2.70;99.90;;;;;;5069060;28;20204;-71
2022/04/02 05:26:30;;;;;;;7.30;4.60;;;2.70;99.90;;;;;;5061931;28;20181;-71
2022/04/02 05:29:10;;;;;;;6.43;4.63;;;2.60;99.90;;;;;;5062582;28;20190;-70
2022/04/02 05:31:36;;;;;;;5.13;4.20;;;2.60;99.90;;;;;;5062641;28;20681;-71
2022/04/02 05:34:02;;;;;;;5.77;4.23;;;2.60;99.90;;;;;;5062940;28;20465;-70
2022/04/02 05:36:28;;;;;;;5.63;4.30;;;2.60;99.90;;;;;;5062906;28;20219;-71
2022/04/02 05:38:54;;;;;;;4.13;3.57;;;2.60;99.90;;;;;;5063681;28;20193;-71
2022/04/02 05:41:19;;;;;;;4.77;4.00;;;2.60;99.90;;;;;;5061893;28;20213;-70
2022/04/02 05:43:45;;;;;;;4.97;4.10;;;2.60;99.90;;;;;;5051271;28;20213;-71
2022/04/02 05:46:12;;;;;;;5.13;4.10;;;2.60;99.90;;;;;;5081344;28;20620;-71
2022/04/02 05:48:38;;;;;;;4.93;3.93;;;2.60;99.90;;;;;;5063885;28;20213;-70
2022/04/02 05:51:03;;;;;;;4.90;4.07;;;2.60;99.90;;;;;;5060820;28;20235;-71
2022/04/02 05:53:29;;;;;;;5.20;3.87;;;2.60;99.90;;;;;;5064474;28;20833;-71
2022/04/02 05:55:55;;;;;;;6.97;4.07;;;2.60;99.90;;;;;;5064690;28;20207;-71
2022/04/02 05:58:21;;;;;;;6.30;3.90;;;2.70;99.90;;;;;;5065835;28;20695;-71
2022/04/02 06:00:48;;;;;;;5.13;4.00;;;2.70;99.90;;;;;;5061867;28;20214;-70
2022/04/02 06:03:15;;;;;;;4.83;4.00;;;2.70;99.90;;;;;;5063460;28;20198;-71
2022/04/02 06:05:41;;;;;;;5.20;4.40;;;2.80;99.90;;;;;;5062090;28;20245;-70
2022/04/02 06:08:07;;;;;;;5.33;4.17;;;2.70;99.90;;;;;;5062301;28;20213;-71
2022/04/02 06:10:32;;;;;;;5.70;4.20;;;2.70;99.90;;;;;;5058897;28;20649;-71
2022/04/02 06:12:58;;;;;;;4.77;4.13;;;2.70;99.90;;;;;;5060091;28;20320;-71
2022/04/02 06:15:24;;;;;;;5.80;4.40;;;2.80;99.90;;;;;;5063548;28;20263;-71
2022/04/02 06:17:51;;;;;;;4.97;4.00;;;2.80;99.90;;;;;;5061335;28;20172;-71
2022/04/02 06:20:17;;;;;;;5.30;4.30;;;2.70;99.90;;;;;;5064141;28;20173;-71
2022/04/02 06:22:43;;;;;;;6.30;4.33;;;2.70;99.90;;;;;;5062119;28;20209;-71
2022/04/02 06:25:09;;;;;;;6.93;4.43;;;2.80;99.90;;;;;;5060771;28;20246;-71
2022/04/02 06:27:46;;;;;;;5.87;4.47;;;2.80;99.90;;;;;;5068979;28;20185;-71
2022/04/02 06:30:15;;;;;;;7.30;4.27;;;2.80;99.90;;;;;;5060661;28;20208;-71
2022/04/02 06:32:41;;;;;;;5.60;4.43;;;2.80;99.90;;;;;;5064456;28;20185;-74
2022/04/02 06:35:08;;;;;;;6.37;4.93;;;2.90;99.90;;;;;;5062838;28;20201;-72
2022/04/02 06:37:36;;;;;;;5.10;4.60;;;2.90;99.90;;;;;;5067797;28;20213;-72
2022/04/02 06:40:04;;;;;;;6.87;5.07;;;2.90;99.90;;;;;;5068431;28;20189;-72
2022/04/02 06:42:30;;;;;;;6.07;4.70;;;2.90;99.90;;;;;;5066089;28;20209;-72
2022/04/02 06:44:59;;;;;;;5.87;4.87;;;2.90;99.90;;;;;;5065598;28;20209;-73
2022/04/02 06:47:26;;;;;;;7.37;5.70;;;2.90;99.90;;;;;;5064181;28;20189;-73
2022/04/02 06:49:53;;;;;;;5.87;5.07;;;2.90;99.90;;;;;;5065278;28;20200;-72
2022/04/02 06:52:19;;;;;;;6.83;5.27;;;2.90;99.90;;;;;;5065233;28;20201;-73
2022/04/02 06:54:45;;;;;;;6.47;5.07;;;2.90;99.90;;;;;;5067668;28;20205;-73
2022/04/02 06:57:10;;;;;;;6.80;5.00;;;2.90;99.90;;;;;;5065126;28;20264;-73
2022/04/02 06:59:36;;;;;;;6.33;5.40;;;3.00;99.90;;;;;;5067737;28;20204;-72
2022/04/02 07:02:03;;;;;;;8.63;5.43;;;2.90;99.90;;;;;;5067063;28;20923;-72
2022/04/02 07:04:29;;;;;;;6.30;4.67;;;3.00;99.90;;;;;;5068689;28;20205;-73
2022/04/02 07:06:55;;;;;;;6.93;5.33;;;3.00;99.90;;;;;;5065044;28;20201;-73
2022/04/02 07:09:21;;;;;;;7.93;5.00;;;3.00;99.90;;;;;;5069100;28;20187;-73
2022/04/02 07:11:47;;;;;;;10.23;5.70;;;3.00;99.90;;;;;;5061780;28;20238;-73
2022/04/02 07:14:13;;;;;;;7.80;6.37;;;3.00;99.90;;;;;;5067876;28;20939;-73
2022/04/02 07:16:39;;;;;;;5.83;4.50;;;3.10;99.90;;;;;;5066957;28;20216;-73
2022/04/02 07:19:05;;;;;;;7.50;5.23;;;3.10;99.90;;;;;;5060761;28;20217;-73
2022/04/02 07:21:33;;;;;;;6.97;4.90;;;3.20;99.90;;;;;;5064100;28;20197;-73
2022/04/02 07:23:59;;;;;;;8.43;6.17;;;3.30;99.90;;;;;;5062223;28;20688;-72
2022/04/02 07:26:26;;;;;;;9.70;6.30;;;3.20;99.90;;;;;;5064445;28;20182;-72
2022/04/02 07:28:55;;;;;;;5.60;4.77;;;3.20;99.90;;;;;;5062195;28;20189;-72
2022/04/02 07:31:21;;;;;;;10.00;5.00;;;3.20;99.90;;;;;;5066505;28;20708;-73
2022/04/02 07:33:46;;;;;;;7.20;5.00;;;3.30;99.90;;;;;;5062524;28;20236;-75
2022/04/02 07:36:35;;;;;;;7.93;5.60;;;3.30;99.90;;;;;;5064744;28;20570;-72
2022/04/02 07:39:31;;;;;;;5.57;5.07;;;3.30;99.90;;;;;;5065820;28;20246;-74
2022/04/02 07:42:21;;;;;;;7.57;5.40;;;3.40;99.90;;;;;;5061647;28;20209;-73
2022/04/02 07:45:04;;;;;;;7.40;5.30;;;3.30;99.90;;;;;;5065848;28;20201;-76
2022/04/02 07:47:33;;;;;;;10.90;5.73;;;3.40;99.90;;;;;;5066514;28;20173;-71
2022/04/02 07:50:02;;;;;;;7.40;5.40;;;3.50;99.90;;;;;;5063157;28;20180;-72
2022/04/02 07:52:29;;;;;;;7.53;4.43;;;3.60;99.90;;;;;;5061736;28;20192;-72
2022/04/02 07:54:57;;;;;;;7.03;4.90;;;3.60;99.90;;;;;;5065422;28;20197;-72
2022/04/02 07:57:37;;;;;;;6.83;4.63;;;3.70;99.90;;;;;;5064845;28;20185;-73
2022/04/02 08:00:06;;;;;;;6.90;5.13;;;3.70;99.90;;;;;;5067063;28;20190;-74
2022/04/02 08:02:43;;;;;;;7.40;5.40;;;3.80;99.90;;;;;;5067240;28;20710;-75
2022/04/02 08:05:14;;;;;;;10.93;4.80;;;3.80;99.90;;;;;;5069331;28;20222;-76
2022/04/02 08:07:49;;;;;;;10.13;5.67;;;3.90;99.90;;;;;;5069441;28;20177;-75
2022/04/02 08:10:17;;;;;;;7.57;5.20;;;4.00;99.90;;;;;;5082971;28;20177;-75
2022/04/02 08:12:47;;;;;;;8.70;5.10;;;4.00;99.90;;;;;;5061070;28;20191;-75
2022/04/02 08:15:18;;;;;;;5.87;5.10;;;4.00;99.90;;;;;;5069872;28;20209;-75
2022/04/02 08:17:53;;;;;;;8.73;5.47;;;4.00;99.90;;;;;;5066507;28;20173;-76
2022/04/02 08:20:20;;;;;;;7.33;5.70;;;4.10;99.90;;;;;;5069334;28;20181;-75
2022/04/02 08:22:46;;;;;;;6.67;5.20;;;4.10;99.90;;;;;;5068891;28;20293;-75
2022/04/02 08:25:13;;;;;;;7.10;5.37;;;4.10;99.90;;;;;;5062598;28;20193;-75
2022/04/02 08:27:46;;;;;;;7.00;5.33;;;4.10;99.90;;;;;;5063245;28;20212;-76
2022/04/02 08:30:22;;;;;;;6.57;4.80;;;4.10;99.90;;;;;;5066562;28;20203;-75
2022/04/02 08:33:09;;;;;;;10.53;5.50;;;4.10;99.90;;;;;;5061448;28;20199;-75
2022/04/02 08:35:50;;;;;;;12.37;5.30;;;4.10;99.90;;;;;;5060149;28;20189;-75
2022/04/02 08:38:28;;;;;;;8.83;5.20;;;4.10;99.90;;;;;;5077680;28;20579;-75
2022/04/02 08:41:03;;;;;;;8.53;4.80;;;4.10;99.90;;;;;;5063725;28;20263;-75
2022/04/02 08:43:59;;;;;;;7.67;4.50;;;4.10;99.90;;;;;;5066417;28;20224;-75
2022/04/02 08:46:43;;;;;;;6.37;5.03;;;4.10;99.90;;;;;;5069558;28;20185;-76
2022/04/02 08:49:20;;;;;;;8.97;5.10;;;4.10;99.90;;;;;;5068786;28;20177;-75
2022/04/02 08:51:48;;;;;;;6.00;4.90;;;4.10;99.90;;;;;;5070640;28;20652;-75
2022/04/02 08:54:26;;;;;;;6.43;5.10;;;4.10;99.90;;;;;;5071116;28;20208;-75
2022/04/02 08:57:14;;;;;;;8.60;5.03;;;4.10;99.90;;;;;;5073059;28;20518;-75
2022/04/02 08:59:41;;;;;;;7.03;5.00;;;4.20;99.90;;;;;;5071894;28;20219;-76
2022/04/02 09:02:46;;;;;;;7.67;4.60;;;4.20;99.90;;;;;;5067952;28;20255;-76
2022/04/02 09:05:20;;;;;;;7.07;4.83;;;4.20;99.90;;;;;;5069594;28;20202;-75
2022/04/02 09:08:18;;;;;;;6.57;4.90;;;4.10;99.90;;;;;;5072613;28;20233;-74
2022/04/02 09:11:21;;;;;;;7.57;5.00;;;4.00;99.90;;;;;;5064280;28;20185;-75
2022/04/02 09:14:08;;;;;;;7.23;5.30;;;4.10;99.90;;;;;;5069264;28;20285;-75
2022/04/02 09:16:49;;;;;;;9.73;5.40;;;4.10;99.90;;;;;;5065100;28;20559;-76
2022/04/02 09:19:55;;;;;;;6.87;4.77;;;4.10;99.90;;;;;;5067567;28;20173;-75
2022/04/02 09:22:43;;;;;;;8.80;5.27;;;4.20;99.90;;;;;;5080830;28;20208;-75
2022/04/02 09:25:11;;;;;;;6.07;4.93;;;4.30;99.90;;;;;;5066309;28;20297;-76
2022/04/02 09:28:08;;;;;;;5.50;4.77;;;4.40;99.90;;;;;;5070897;28;20185;-75
2022/04/02 09:30:59;;;;;;;8.80;5.50;;;4.50;99.90;;;;;;5068625;28;20181;-75
2022/04/02 09:33:55;;;;;;;8.60;5.57;;;4.60;99.90;;;;;;5065656;28;20293;-77
2022/04/02 09:36:28;;;;;;;5.70;5.07;;;4.60;99.90;;;;;;5067950;28;20193;-75
2022/04/02 09:39:14;;;;;;;6.00;4.93;;;4.60;97.60;;;;;;5064367;28;20173;-74
2022/04/02 09:41:47;;;;;;;7.37;5.37;;;4.50;98.10;;;;;;5065071;28;20201;-74
2022/04/02 09:44:19;;;;;;;5.93;5.20;;;4.50;99.90;;;;;;5071120;28;20197;-74
2022/04/02 09:47:03;;;;;;;6.80;4.97;;;4.50;98.80;;;;;;5068734;28;20184;-74
2022/04/02 09:49:48;;;;;;;8.50;5.07;;;4.50;99.90;;;;;;5064076;28;20176;-74
2022/04/02 09:52:21;;;;;;;7.63;4.73;;;4.50;99.90;;;;;;5066476;28;20188;-73
2022/04/02 09:55:09;;;;;;;8.03;5.07;;;4.50;99.60;;;;;;5067709;28;20220;-74
2022/04/02 09:57:37;;;;;;;9.13;6.00;;;4.50;99.90;;;;;;5064590;28;20256;-74
2022/04/02 10:00:07;;;;;;;6.87;5.17;;;4.60;99.90;;;;;;5067013;28;20181;-74
2022/04/02 10:02:39;;;;;;;7.03;5.40;;;4.70;99.90;;;;;;5066982;28;20216;-72
2022/04/02 10:05:08;;;;;;;7.37;5.00;;;4.80;99.90;;;;;;5062547;28;20204;-74
2022/04/02 10:07:46;;;;;;;8.83;5.23;;;4.70;98.90;;;;;;5051921;28;20197;-74
2022/04/02 10:10:12;;;;;;;8.93;6.20;;;4.90;97.70;;;;;;5075388;28;20794;-74
2022/04/02 10:12:42;;;;;;;10.40;6.13;;;5.00;98.50;;;;;;5066079;28;20177;-74
2022/04/02 10:15:08;;;;;;;7.10;5.20;;;5.10;96.50;;;;;;5065857;28;20208;-75
2022/04/02 10:17:39;;;;;;;9.70;6.03;;;5.20;91.70;;;;;;5066620;28;20687;-75
2022/04/02 10:20:08;;;;;;;5.97;5.00;;;5.30;88.50;;;;;;5054217;28;20678;-74
2022/04/02 10:22:42;;;;;;;7.93;5.80;;;5.30;90.30;;;;;;5067583;28;20700;-74
2022/04/02 10:25:11;;;;;;;7.23;5.70;;;5.40;88.20;;;;;;5066168;28;20197;-74
2022/04/02 10:27:42;;;;;;;7.40;5.33;;;5.50;90.80;;;;;;5067133;28;20189;-75
2022/04/02 10:30:09;;;;;;;9.07;5.30;;;5.50;85.40;;;;;;5067525;28;20259;-74
2022/04/02 10:35:49;;;;;;;6.60;5.30;;;5.60;80.00;;;;;;5064719;28;20185;-74
2022/04/02 10:38:28;;;;;;;6.07;5.27;;;5.80;80.10;;;;;;5071069;28;20569;-74
2022/04/02 10:40:56;;;;;;;8.00;5.50;;;5.90;81.90;;;;;;5063980;28;20303;-74
2022/04/02 10:43:30;;;;;;;6.67;5.40;;;6.00;81.30;;;;;;5066454;28;20792;-73
2022/04/02 10:45:58;;;;;;;8.37;5.90;;;6.10;76.30;;;;;;5065960;28;20185;-73
2022/04/02 10:48:36;;;;;;;7.57;6.27;;;6.00;75.10;;;;;;5064756;28;20653;-74
2022/04/02 10:51:02;;;;;;;8.00;6.30;;;6.00;75.10;;;;;;5064065;28;20310;-73
2022/04/02 10:53:31;;;;;;;9.83;5.80;;;6.00;73.90;;;;;;5066104;28;20247;-72
2022/04/02 10:56:01;;;;;;;8.63;6.10;;;6.00;73.10;;;;;;5063916;28;20208;-75
2022/04/02 10:58:36;;;;;;;5.70;5.10;;;5.90;74.00;;;;;;5066482;28;20181;-79
2022/04/02 11:01:04;;;;;;;7.77;5.73;;;6.00;72.20;;;;;;5066219;28;20637;-72
2022/04/02 11:03:39;;;;;;;6.70;5.73;;;6.10;72.70;;;;;;5063417;28;20216;-72
2022/04/02 11:06:08;;;;;;;8.37;5.70;;;6.00;69.70;;;;;;5063127;28;20192;-75
2022/04/02 11:08:34;;;;;;;7.63;6.00;;;6.00;72.20;;;;;;5065221;28;20185;-76
2022/04/02 11:11:23;;;;;;;8.63;6.43;;;6.10;73.70;;;;;;5062234;28;20181;-71
2022/04/02 11:14:00;;;;;;;11.33;6.10;;;6.00;71.40;;;;;;5063402;28;20204;-72
2022/04/02 11:16:39;;;;;;;6.70;5.83;;;6.00;71.50;;;;;;5063486;28;20844;-71
2022/04/02 11:22:02;;;;;;;7.43;6.00;;;6.00;69.80;;;;;;5061309;28;20599;-77
2022/04/02 11:24:48;;;;;;;8.00;5.50;;;5.90;68.30;;;;;;5066421;28;20196;-75
2022/04/02 11:27:17;;;;;;;7.47;5.83;;;5.90;68.50;;;;;;5066950;28;20226;-81
2022/04/02 11:29:49;;;;;;;9.00;6.10;;;6.00;68.70;;;;;;5065810;28;20536;-75
2022/04/02 11:32:21;;;;;;;7.77;5.93;;;6.00;67.80;;;;;;5064483;28;20255;-76
2022/04/02 11:34:48;;;;;;;9.50;6.07;;;5.90;66.40;;;;;;5062697;28;20351;-72
2022/04/02 11:37:19;;;;;;;8.60;6.20;;;5.90;66.60;;;;;;5061757;28;20188;-74
2022/04/02 11:39:51;;;;;;;8.23;6.20;;;5.90;67.80;;;;;;5065632;28;20188;-74
2022/04/02 11:42:21;;;;;;;8.10;5.97;;;6.00;66.90;;;;;;5065067;28;20209;-75
2022/04/02 11:44:52;;;;;;;8.90;5.83;;;6.00;66.80;;;;;;5059595;28;20197;-75
2022/04/02 11:47:29;;;;;;;9.47;6.10;;;5.90;64.80;;;;;;5060588;28;20593;-76
2022/04/02 11:50:07;;;;;;;9.40;6.13;;;5.80;64.90;;;;;;5063272;28;20486;-73
2022/04/02 11:52:53;;;;;;;9.20;6.17;;;5.80;64.60;;;;;;5061356;28;20186;-73
2022/04/02 11:55:19;;;;;;;8.87;6.20;;;5.80;64.80;;;;;;5063099;28;20205;-73
2022/04/02 11:58:04;;;;;;;9.00;6.37;;;5.80;64.60;;;;;;5061524;28;21757;-74
2022/04/02 12:00:32;;;;;;;9.97;6.03;;;5.80;64.70;;;;;;5067765;28;20188;-75
2022/04/02 12:02:59;;;;;;;6.93;6.03;;;5.60;63.50;;;;;;5066096;28;20692;-74
2022/04/02 12:05:40;;;;;;;7.37;5.97;;;5.70;64.80;;;;;;5065536;28;20185;-73
2022/04/02 12:08:07;;;;;;;8.03;6.37;;;5.80;64.80;;;;;;5066928;28;20178;-75
2022/04/02 12:10:42;;;;;;;7.27;6.20;;;5.90;63.60;;;;;;5064864;28;20265;-75
2022/04/02 12:13:08;;;;;;;7.10;6.10;;;6.00;64.20;;;;;;5065545;28;20230;-75
2022/04/02 12:15:34;;;;;;;8.53;6.00;;;6.10;63.70;;;;;;5064463;28;20216;-71
2022/04/02 12:18:09;;;;;;;9.10;6.70;;;6.40;64.10;;;;;;5066876;28;20181;-73
2022/04/02 12:20:39;;;;;;;8.30;6.30;;;6.60;62.90;;;;;;5061428;28;20597;-73
2022/04/02 12:23:13;;;;;;;7.10;5.87;;;6.70;61.10;;;;;;5066666;28;20272;-72
2022/04/02 12:25:42;;;;;;;7.87;6.10;;;6.60;60.50;;;;;;5068539;28;20268;-74
2022/04/02 12:28:14;;;;;;;7.10;5.63;;;6.70;60.80;;;;;;5062597;28;20177;-74
2022/04/02 12:30:43;;;;;;;6.70;5.53;;;6.70;60.00;;;;;;5068054;28;20184;-76
2022/04/02 12:33:14;;;;;;;9.80;5.90;;;6.70;59.60;;;;;;5071078;28;20169;-74
2022/04/02 12:35:44;;;;;;;8.30;6.47;;;6.70;59.60;;;;;;5070169;28;20183;-74
2022/04/02 12:38:26;;;;;;;8.03;7.10;;;6.60;59.60;;;;;;5068010;28;20174;-74
2022/04/02 12:40:56;;;;;;;6.53;5.67;;;6.60;59.80;;;;;;5066035;28;20228;-75
2022/04/02 12:43:37;;;;;;;6.70;6.00;;;6.70;60.30;;;;;;5065174;28;20189;-77
2022/04/02 12:46:03;;;;;;;6.77;5.47;;;6.90;59.80;;;;;;5063521;28;20174;-75
2022/04/02 12:48:44;;;;;;;6.90;5.97;;;6.80;59.80;;;;;;5072802;28;20235;-79
2022/04/02 12:51:15;;;;;;;6.40;5.70;;;6.70;59.80;;;;;;5072281;28;20238;-74
2022/04/02 12:53:43;;;;;;;8.30;5.80;;;6.60;60.50;;;;;;5079752;28;20197;-74
2022/04/02 12:56:18;;;;;;;8.67;6.00;;;6.40;60.10;;;;;;5064396;28;20181;-74
2022/04/02 12:58:46;;;;;;;9.53;5.97;;;6.40;60.40;;;;;;5067545;28;20208;-74
2022/04/02 13:01:15;;;;;;;6.87;5.63;;;6.40;59.80;;;;;;5066395;28;20213;-74
2022/04/02 13:03:45;;;;;;;7.30;5.43;;;6.60;59.70;;;;;;5066842;28;20212;-79
2022/04/02 13:06:19;;;;;;;7.73;4.80;;;6.60;59.10;;;;;;5066809;28;20185;-75
2022/04/02 13:08:57;;;;;;;9.47;5.77;;;6.60;58.90;;;;;;5063464;28;20184;-74
2022/04/02 13:11:38;;;;;;;8.37;5.87;;;6.60;59.20;;;;;;5068736;28;20189;-74
2022/04/02 13:14:21;;;;;;;7.50;5.77;;;6.70;59.30;;;;;;5066789;28;20196;-75
2022/04/02 13:16:50;;;;;;;7.23;5.13;;;6.70;58.90;;;;;;5080173;28;20188;-75
2022/04/02 13:22:13;;;;;;;6.40;5.23;;;6.70;59.30;;;;;;5064195;28;20205;-75
2022/04/02 13:24:58;;;;;;;8.10;5.17;;;6.80;58.70;;;;;;5067019;28;20193;-75
2022/04/02 13:27:33;;;;;;;5.83;4.90;;;6.90;58.20;;;;;;5069321;28;20169;-75
2022/04/02 13:30:15;;;;;;;5.90;5.00;;;7.00;57.80;;;;;;5063111;28;20272;-76